Terminal Aerodrome Forecast
Issued by NWS Twin Cities, MN

Home | Current Version | Previous Version | Graphics & Text | Print | Product List | Glossary On
Versions: 1 2 3 4 5 6 7 8 9 10 11 12 13 14 15 16 17 18 19 20 21 22 23 24 25 26 27 28 29 30
000
FTUS43 KMPX 201502 AAA
TAFMSP
TAF AMD
KMSP 201502Z 2015/2118 12007KT P6SM SCT035 OVC200
     FM201600 14010KT 6SM -SHRA BR VCTS SCT020 OVC040CB
      TEMPO 2016/2018 2SM SHRA BR OVC020
     FM201900 18011KT 5SM -RA BR BKN012 OVC025
     FM210100 22009KT P6SM SCT015 BKN025
     FM210300 28008KT P6SM SCT030=

USA.gov is the U.S. government's official web portal to all federal, state and local government web resources and services.